Time;durP1;ratioP1;P1;durP2;ratioP2;P2;SDS_P1;SDS_P2;PMS_P1;PMS_P2;Temp;Humidity;BMP_temperature;BMP_pressure;BME280_temperature;BME280_humidity;BME280_pressure;Samples;Min_cycle;Max_cycle;Signal;HPM_P1;HPM_P2
2022/02/24 00:00:18;;;;;;;;;;;;;;;-3.78;73.10;101442.88;4860621;29;19924;-61
2022/02/24 00:02:44;;;;;;;;;;;;;;;-3.79;73.78;101459.41;4861073;29;19924;-62
2022/02/24 00:05:10;;;;;;;;;;;;;;;-3.73;73.08;101455.75;4862300;29;19931;-63
2022/02/24 00:07:35;;;;;;;;;;;;;;;-3.69;73.12;101451.28;4861291;29;20386;-62
2022/02/24 00:10:00;;;;;;;;;;;;;;;-3.61;73.26;101460.50;4861135;29;19928;-63
2022/02/24 00:12:26;;;;;;;;;;;;;;;-3.54;73.08;101456.78;4860854;29;19924;-61
2022/02/24 00:14:53;;;;;;;;;;;;;;;-3.53;73.00;101453.25;4860754;29;20023;-62
2022/02/24 00:17:19;;;;;;;;;;;;;;;-3.56;72.95;101458.59;4861622;29;19959;-63
2022/02/24 00:19:44;;;;;;;;;;;;;;;-3.54;73.29;101461.13;4862806;29;19928;-61
2022/02/24 00:22:10;;;;;;;;;;;;;;;-3.48;72.64;101451.31;4862447;29;20319;-63
2022/02/24 00:24:35;;;;;;;;;;;;;;;-3.41;72.33;101457.19;4860963;29;20475;-62
2022/02/24 00:27:01;;;;;;;;;;;;;;;-3.33;72.93;101446.47;4859353;29;20299;-63
2022/02/24 00:29:26;;;;;;;;;;;;;;;-3.30;72.92;101452.41;4861257;29;19928;-62
2022/02/24 00:31:52;;;;;;;;;;;;;;;-3.32;72.30;101456.00;4862185;29;19960;-62
2022/02/24 00:34:22;;;;;;;;;;;;;;;-3.31;72.88;101450.72;4861785;29;20022;-62
2022/02/24 00:36:48;;;;;;;;;;;;;;;-3.29;72.25;101443.69;4861678;29;19924;-63
2022/02/24 00:39:14;;;;;;;;;;;;;;;-3.27;72.69;101438.41;4862768;29;19924;-62
2022/02/24 00:41:39;;;;;;;;;;;;;;;-3.28;72.63;101436.72;4862157;29;19952;-60
2022/02/24 00:44:08;;;;;;;;;;;;;;;-3.32;72.09;101422.13;4862314;29;20406;-62
2022/02/24 00:46:33;;;;;;;;;;;;;;;-3.37;72.92;101426.66;4844629;29;19924;-61
2022/02/24 00:48:58;;;;;;;;;;;;;;;-3.47;73.01;101432.22;4861457;29;19949;-63
2022/02/24 00:51:24;;;;;;;;;;;;;;;-3.55;72.94;101423.81;4860141;29;20268;-62
2022/02/24 00:53:49;;;;;;;;;;;;;;;-3.57;73.49;101428.25;4843325;29;19924;-61
2022/02/24 00:56:14;;;;;;;;;;;;;;;-3.61;73.60;101424.06;4860419;29;20126;-63
2022/02/24 00:58:40;;;;;;;;;;;;;;;-3.63;73.32;101430.22;4861922;29;19980;-65
2022/02/24 01:01:05;;;;;;;;;;;;;;;-3.66;74.14;101428.59;4861596;29;19924;-63
2022/02/24 01:03:31;;;;;;;;;;;;;;;-3.63;74.18;101440.66;4861324;29;19931;-61
2022/02/24 01:05:56;;;;;;;;;;;;;;;-3.54;73.84;101433.34;4861193;29;19930;-62
2022/02/24 01:08:21;;;;;;;;;;;;;;;-3.48;73.91;101433.09;4862300;29;19924;-62
2022/02/24 01:10:47;;;;;;;;;;;;;;;-3.40;73.92;101429.38;4861552;29;19971;-62
2022/02/24 01:13:13;;;;;;;;;;;;;;;-3.36;72.97;101428.38;4843777;29;19967;-62
2022/02/24 01:15:41;;;;;;;;;;;;;;;-3.34;73.53;101429.16;4860475;29;19925;-61
2022/02/24 01:18:07;;;;;;;;;;;;;;;-3.30;73.20;101442.00;4859937;29;19925;-63
2022/02/24 01:20:32;;;;;;;;;;;;;;;-3.26;72.85;101442.72;4860314;29;19928;-62
2022/02/24 01:22:57;;;;;;;;;;;;;;;-3.29;72.78;101435.03;4860523;29;19928;-61
2022/02/24 01:25:24;;;;;;;;;;;;;;;-3.26;73.15;101424.50;4860106;29;19947;-63
2022/02/24 01:27:49;;;;;;;;;;;;;;;-3.21;73.33;101428.63;4860311;29;19924;-63
2022/02/24 01:30:15;;;;;;;;;;;;;;;-3.25;73.42;101427.03;4860882;29;19946;-61
2022/02/24 01:32:40;;;;;;;;;;;;;;;-3.24;73.08;101422.69;4861282;29;19979;-61
2022/02/24 01:35:06;;;;;;;;;;;;;;;-3.22;73.20;101431.28;4860078;29;20020;-62
2022/02/24 01:37:32;;;;;;;;;;;;;;;-3.18;72.61;101431.13;4859910;29;19931;-63
2022/02/24 01:39:57;;;;;;;;;;;;;;;-3.13;72.47;101434.41;4859850;29;19924;-61
2022/02/24 01:42:23;;;;;;;;;;;;;;;-3.04;72.50;101429.72;4861965;29;20273;-64
2022/02/24 01:45:13;;;;;;;;;;;;;;;-2.99;72.75;101428.63;4863720;29;20044;-64
2022/02/24 01:47:41;;;;;;;;;;;;;;;-2.94;72.55;101426.69;4863268;29;19967;-62
2022/02/24 01:50:07;;;;;;;;;;;;;;;-2.95;72.28;101425.00;4863804;29;19924;-60
2022/02/24 01:52:34;;;;;;;;;;;;;;;-2.95;72.40;101419.78;4864345;29;19935;-63
2022/02/24 01:54:59;;;;;;;;;;;;;;;-3.00;72.16;101426.94;4864927;29;19946;-63
2022/02/24 01:57:25;;;;;;;;;;;;;;;-3.16;72.63;101431.91;4861853;29;20027;-64
2022/02/24 01:59:50;;;;;;;;;;;;;;;-3.30;73.27;101426.38;4861647;29;19984;-63
2022/02/24 02:02:16;;;;;;;;;;;;;;;-3.45;73.25;101425.22;4862390;29;19924;-63
2022/02/24 02:04:42;;;;;;;;;;;;;;;-3.58;74.26;101415.28;4862331;29;19924;-65
2022/02/24 02:07:08;;;;;;;;;;;;;;;-3.73;74.31;101408.91;4862281;29;19967;-65
2022/02/24 02:09:34;;;;;;;;;;;;;;;-3.80;74.22;101408.25;4862086;29;19967;-63
2022/02/24 02:11:59;;;;;;;;;;;;;;;-3.84;75.23;101400.63;4862784;29;19924;-65
2022/02/24 02:14:25;;;;;;;;;;;;;;;-3.87;74.50;101405.94;4862806;29;19972;-63
2022/02/24 02:16:51;;;;;;;;;;;;;;;-3.87;75.18;101413.75;4846160;29;19932;-62
2022/02/24 02:19:17;;;;;;;;;;;;;;;-3.92;75.20;101403.50;4862630;29;19996;-65
2022/02/24 02:21:46;;;;;;;;;;;;;;;-3.94;75.58;101404.47;4845894;29;19986;-64
2022/02/24 02:24:12;;;;;;;;;;;;;;;-4.03;75.89;101405.66;4862561;29;19932;-63
2022/02/24 02:26:37;;;;;;;;;;;;;;;-4.07;76.28;101407.47;4862600;29;19931;-63
2022/02/24 02:29:04;;;;;;;;;;;;;;;-4.08;76.07;101404.94;4845833;29;19924;-65
2022/02/24 02:31:29;;;;;;;;;;;;;;;-4.10;75.66;101409.34;4846001;29;19924;-66
2022/02/24 02:34:05;;;;;;;;;;;;;;;-4.11;76.19;101416.28;4862767;29;20280;-67
2022/02/24 02:36:30;;;;;;;;;;;;;;;-4.10;76.26;101414.53;4862641;29;19924;-66
2022/02/24 02:38:56;;;;;;;;;;;;;;;-4.11;76.46;101418.91;4845996;29;20344;-64
2022/02/24 02:41:21;;;;;;;;;;;;;;;-4.09;76.70;101414.50;4862346;29;19931;-65
2022/02/24 02:43:47;;;;;;;;;;;;;;;-4.08;76.37;101410.13;4862261;29;20399;-64
2022/02/24 02:46:14;;;;;;;;;;;;;;;-4.11;76.30;101410.25;4861794;29;19977;-64
2022/02/24 02:48:40;;;;;;;;;;;;;;;-4.19;76.67;101414.88;4862331;29;20478;-64
2022/02/24 02:51:07;;;;;;;;;;;;;;;-4.22;76.84;101415.84;4862545;29;19974;-65
2022/02/24 02:53:32;;;;;;;;;;;;;;;-4.24;76.71;101407.22;4861286;29;19924;-64
2022/02/24 02:55:58;;;;;;;;;;;;;;;-4.27;76.79;101409.94;4862014;29;19953;-63
2022/02/24 02:58:23;;;;;;;;;;;;;;;-4.37;77.83;101406.78;4861919;29;19930;-64
2022/02/24 03:00:48;;;;;;;;;;;;;;;-4.37;77.32;101400.72;4861693;29;19974;-63
2022/02/24 03:03:14;;;;;;;;;;;;;;;-4.42;77.55;101402.66;4861921;29;19924;-66
2022/02/24 03:05:39;;;;;;;;;;;;;;;-4.46;77.69;101396.72;4861710;29;19924;-65
2022/02/24 03:08:06;;;;;;;;;;;;;;;-4.46;77.63;101390.66;4861699;29;19924;-66
2022/02/24 03:10:32;;;;;;;;;;;;;;;-4.44;77.80;101394.91;4861774;29;19924;-65
2022/02/24 03:12:57;;;;;;;;;;;;;;;-4.41;76.93;101393.94;4861942;29;19924;-65
2022/02/24 03:15:23;;;;;;;;;;;;;;;-4.41;77.82;101391.34;4861739;29;19924;-66
2022/02/24 03:17:49;;;;;;;;;;;;;;;-4.45;77.71;101397.56;4861581;29;20357;-63
2022/02/24 03:20:15;;;;;;;;;;;;;;;-4.47;77.39;101399.34;4861826;29;19963;-61
2022/02/24 03:22:42;;;;;;;;;;;;;;;-4.46;78.07;101395.84;4861696;29;19971;-64
2022/02/24 03:25:07;;;;;;;;;;;;;;;-4.49;77.85;101391.63;4845203;29;19928;-66
2022/02/24 03:27:33;;;;;;;;;;;;;;;-4.51;77.75;101388.22;4861390;29;19972;-63
2022/02/24 03:29:58;;;;;;;;;;;;;;;-4.48;77.73;101387.25;4844877;29;19932;-63
2022/02/24 03:32:24;;;;;;;;;;;;;;;-4.47;77.71;101399.34;4861334;29;20427;-65
2022/02/24 03:34:49;;;;;;;;;;;;;;;-4.48;78.36;101392.47;4861556;29;19946;-64
2022/02/24 03:37:15;;;;;;;;;;;;;;;-4.48;78.48;101392.47;4861402;29;20339;-64
2022/02/24 03:39:42;;;;;;;;;;;;;;;-4.53;78.71;101399.56;4861398;29;19935;-64
2022/02/24 03:42:07;;;;;;;;;;;;;;;-4.52;78.02;101396.91;4861110;29;19932;-65
2022/02/24 03:44:33;;;;;;;;;;;;;;;-4.50;78.67;101399.47;4861429;29;19924;-64
2022/02/24 03:46:59;;;;;;;;;;;;;;;-4.51;78.57;101395.16;4861504;29;19928;-63
2022/02/24 03:49:24;;;;;;;;;;;;;;;-4.52;78.94;101390.88;4861359;29;19931;-63
2022/02/24 03:51:51;;;;;;;;;;;;;;;-4.54;78.15;101384.88;4861411;29;19924;-62
2022/02/24 03:54:16;;;;;;;;;;;;;;;-4.54;78.66;101382.28;4861382;29;19931;-66
2022/02/24 03:56:42;;;;;;;;;;;;;;;-4.57;78.17;101397.97;4861037;29;19924;-66
2022/02/24 03:59:07;;;;;;;;;;;;;;;-4.60;78.74;101398.09;4861125;29;19924;-65
2022/02/24 04:01:32;;;;;;;;;;;;;;;-4.65;79.01;101386.97;4860874;29;20300;-64
2022/02/24 04:03:58;;;;;;;;;;;;;;;-4.67;79.25;101395.66;4843917;29;19959;-65
2022/02/24 04:06:23;;;;;;;;;;;;;;;-4.67;79.16;101403.47;4861236;29;20014;-62
2022/02/24 04:08:49;;;;;;;;;;;;;;;-4.66;79.51;101404.31;4860819;29;19986;-64
2022/02/24 04:11:14;;;;;;;;;;;;;;;-4.64;79.33;101406.84;4844610;29;20018;-63
2022/02/24 04:13:39;;;;;;;;;;;;;;;-4.64;79.19;101405.09;4860834;29;19924;-62
2022/02/24 04:16:05;;;;;;;;;;;;;;;-4.67;79.00;101406.06;4861123;29;19924;-65
2022/02/24 04:18:30;;;;;;;;;;;;;;;-4.63;79.23;101405.94;4860647;29;19967;-66
2022/02/24 04:20:56;;;;;;;;;;;;;;;-4.57;79.33;101408.38;4860459;29;19928;-65
2022/02/24 04:23:24;;;;;;;;;;;;;;;-4.48;79.10;101403.72;4860771;29;20012;-66
2022/02/24 04:25:49;;;;;;;;;;;;;;;-4.41;78.97;101396.53;4828860;29;20422;-66
2022/02/24 04:28:14;;;;;;;;;;;;;;;-4.35;78.65;101396.34;4860608;29;20026;-63
2022/02/24 04:30:40;;;;;;;;;;;;;;;-4.28;78.22;101389.19;4860348;29;20399;-65
2022/02/24 04:33:05;;;;;;;;;;;;;;;-4.33;77.43;101381.56;4860255;29;20419;-66
2022/02/24 04:35:30;;;;;;;;;;;;;;;-4.33;77.83;101378.97;4860726;29;19932;-65
2022/02/24 04:37:56;;;;;;;;;;;;;;;-4.38;77.61;101378.25;4860718;29;20019;-65
2022/02/24 04:40:21;;;;;;;;;;;;;;;-4.37;77.45;101379.94;4860255;29;19953;-63
2022/02/24 04:42:47;;;;;;;;;;;;;;;-4.39;77.72;101372.19;4860427;29;19931;-65
2022/02/24 04:45:12;;;;;;;;;;;;;;;-4.36;77.78;101371.22;4860046;29;20026;-65
2022/02/24 04:47:37;;;;;;;;;;;;;;;-4.36;77.26;101368.63;4860167;29;21195;-65
2022/02/24 04:50:08;;;;;;;;;;;;;;;-4.37;77.48;101374.72;4860771;29;20018;-63
2022/02/24 04:52:34;;;;;;;;;;;;;;;-4.38;77.25;101367.84;4859440;29;19928;-64
2022/02/24 04:55:00;;;;;;;;;;;;;;;-4.40;77.40;101364.44;4860076;29;19931;-62
2022/02/24 04:57:26;;;;;;;;;;;;;;;-4.40;77.24;101357.50;4860283;29;19924;-63
2022/02/24 04:59:51;;;;;;;;;;;;;;;-4.42;76.56;101354.09;4859955;29;19928;-65
2022/02/24 05:02:16;;;;;;;;;;;;;;;-4.47;76.65;101352.56;4859494;29;20008;-67
2022/02/24 05:04:42;;;;;;;;;;;;;;;-4.48;76.82;101351.72;4860315;29;19924;-65
2022/02/24 05:07:07;;;;;;;;;;;;;;;-4.46;76.63;101346.47;4860231;29;20030;-65
2022/02/24 05:09:32;;;;;;;;;;;;;;;-4.46;77.19;101354.25;4860131;29;19924;-64
2022/02/24 05:11:58;;;;;;;;;;;;;;;-4.45;77.03;101338.59;4860160;29;20509;-62
2022/02/24 05:14:23;;;;;;;;;;;;;;;-4.39;76.08;101329.75;4860196;29;20308;-64
2022/02/24 05:16:49;;;;;;;;;;;;;;;-4.37;76.20;101333.13;4861303;29;19928;-64
2022/02/24 05:19:14;;;;;;;;;;;;;;;-4.33;76.37;101324.34;4863245;29;19924;-65
2022/02/24 05:21:42;;;;;;;;;;;;;;;-4.27;75.36;101305.06;4863559;29;19935;-67
2022/02/24 05:24:08;;;;;;;;;;;;;;;-4.20;75.46;101310.00;4862039;29;19928;-67
2022/02/24 05:26:34;;;;;;;;;;;;;;;-4.19;75.26;101311.69;4863472;29;20311;-65
2022/02/24 05:28:59;;;;;;;;;;;;;;;-4.18;75.50;101315.97;4863567;29;19928;-67
2022/02/24 05:31:24;;;;;;;;;;;;;;;-4.16;75.25;101306.38;4846540;29;19924;-65
2022/02/24 05:33:50;;;;;;;;;;;;;;;-4.15;74.68;101307.22;4863088;29;20428;-67
2022/02/24 05:36:15;;;;;;;;;;;;;;;-4.10;74.72;101306.13;4863015;29;19924;-66
2022/02/24 05:38:40;;;;;;;;;;;;;;;-4.02;74.57;101307.63;4862096;29;20312;-64
2022/02/24 05:41:06;;;;;;;;;;;;;;;-3.98;73.99;101301.41;4863476;29;19971;-68
2022/02/24 05:43:31;;;;;;;;;;;;;;;-3.95;73.42;101299.53;4862978;29;19928;-71
2022/02/24 05:45:57;;;;;;;;;;;;;;;-3.88;74.16;101294.94;4846850;29;19924;-70
2022/02/24 05:48:23;;;;;;;;;;;;;;;-3.81;73.97;101286.00;4863150;29;20349;-71
2022/02/24 05:50:49;;;;;;;;;;;;;;;-3.82;74.00;101289.50;4863311;29;20499;-67
2022/02/24 05:53:14;;;;;;;;;;;;;;;-3.85;73.99;101285.25;4862020;29;20023;-66
2022/02/24 05:55:40;;;;;;;;;;;;;;;-3.87;73.64;101279.28;4862904;29;19966;-68
2022/02/24 05:58:05;;;;;;;;;;;;;;;-3.87;74.25;101265.41;4862417;29;19924;-69
2022/02/24 06:00:30;;;;;;;;;;;;;;;-3.86;73.45;101272.31;4862550;29;20012;-68
2022/02/24 06:02:56;;;;;;;;;;;;;;;-3.81;73.73;101262.56;4864115;29;19996;-67
2022/02/24 06:05:21;;;;;;;;;;;;;;;-3.79;73.40;101264.19;4862917;29;19973;-68
2022/02/24 06:07:47;;;;;;;;;;;;;;;-3.70;74.18;101263.03;4846444;29;19924;-68
2022/02/24 06:10:13;;;;;;;;;;;;;;;-3.70;73.26;101247.41;4863085;29;20523;-68
2022/02/24 06:12:38;;;;;;;;;;;;;;;-3.59;72.96;101260.84;4862180;29;20324;-69
2022/02/24 06:15:05;;;;;;;;;;;;;;;-3.50;72.48;101249.19;4863334;29;19953;-68
2022/02/24 06:17:31;;;;;;;;;;;;;;;-3.41;72.80;101253.22;4863685;29;19924;-66
2022/02/24 06:19:57;;;;;;;;;;;;;;;-3.35;72.32;101260.78;4862884;29;19935;-67
2022/02/24 06:22:22;;;;;;;;;;;;;;;-3.39;71.39;101247.03;4846336;29;19928;-69
2022/02/24 06:24:49;;;;;;;;;;;;;;;-3.35;71.99;101232.97;4862925;29;19946;-67
2022/02/24 06:27:14;;;;;;;;;;;;;;;-3.34;71.52;101234.66;4862503;29;20340;-67
2022/02/24 06:29:40;;;;;;;;;;;;;;;-3.29;71.91;101237.06;4862540;29;19963;-68
2022/02/24 06:32:05;;;;;;;;;;;;;;;-3.20;71.90;101231.47;4862809;29;19932;-68
2022/02/24 06:34:30;;;;;;;;;;;;;;;-3.21;70.91;101229.78;4862624;29;19935;-70
2022/02/24 06:36:56;;;;;;;;;;;;;;;-3.20;70.92;101231.47;4862288;29;19971;-69
2022/02/24 06:39:22;;;;;;;;;;;;;;;-3.20;71.00;101215.84;4845951;29;19931;-68
2022/02/24 06:41:47;;;;;;;;;;;;;;;-3.17;70.84;101205.31;4830281;29;19924;-68
2022/02/24 06:44:15;;;;;;;;;;;;;;;-3.13;70.67;101197.31;4845521;29;19924;-67
2022/02/24 06:46:41;;;;;;;;;;;;;;;-3.11;71.57;101184.22;4862199;29;20072;-66
2022/02/24 06:49:09;;;;;;;;;;;;;;;-3.05;70.78;101193.53;4861891;29;19967;-67
2022/02/24 06:51:34;;;;;;;;;;;;;;;-3.00;71.00;101181.13;4845147;29;20039;-66
2022/02/24 06:54:00;;;;;;;;;;;;;;;-3.01;70.83;101185.50;4862043;29;19925;-67
2022/02/24 06:56:25;;;;;;;;;;;;;;;-2.98;70.73;101190.59;4861984;29;20396;-68
2022/02/24 06:58:51;;;;;;;;;;;;;;;-3.02;70.71;101180.38;4862391;29;19928;-67
2022/02/24 07:01:17;;;;;;;;;;;;;;;-2.98;70.94;101174.94;4862672;29;19931;-67
2022/02/24 07:03:42;;;;;;;;;;;;;;;-3.00;71.10;101171.56;4862503;29;20034;-67
2022/02/24 07:06:08;;;;;;;;;;;;;;;-2.90;71.28;101185.88;4861944;29;19983;-69
2022/02/24 07:08:33;;;;;;;;;;;;;;;-2.90;70.92;101175.44;4845371;29;19975;-66
2022/02/24 07:10:59;;;;;;;;;;;;;;;-2.86;70.75;101179.66;4862137;29;19952;-68
2022/02/24 07:13:24;;;;;;;;;;;;;;;-2.84;70.68;101172.59;4862137;29;19980;-67
2022/02/24 07:15:50;;;;;;;;;;;;;;;-2.80;70.67;101165.50;4862381;29;19924;-66
2022/02/24 07:18:15;;;;;;;;;;;;;;;-2.75;70.93;101165.28;4845307;29;20026;-66
2022/02/24 07:20:44;;;;;;;;;;;;;;;-2.69;70.65;101163.25;4861526;29;19984;-67
2022/02/24 07:23:09;;;;;;;;;;;;;;;-2.57;70.85;101164.47;4861219;29;20479;-69
2022/02/24 07:25:34;;;;;;;;;;;;;;;-2.48;70.70;101176.25;4861188;29;20027;-67
2022/02/24 07:28:00;;;;;;;;;;;;;;;-2.45;70.46;101179.56;4861389;29;19924;-67
2022/02/24 07:30:26;;;;;;;;;;;;;;;-2.45;70.37;101174.34;4861398;29;19931;-67
2022/02/24 07:32:51;;;;;;;;;;;;;;;-2.49;70.43;101172.78;4861494;29;19935;-67
2022/02/24 07:35:16;;;;;;;;;;;;;;;-2.47;71.05;101176.16;4861281;29;19941;-68
2022/02/24 07:37:42;;;;;;;;;;;;;;;-2.43;70.81;101176.88;4861466;29;19924;-71
2022/02/24 07:40:09;;;;;;;;;;;;;;;-2.29;71.09;101164.06;4860765;29;19924;-68
2022/02/24 07:42:35;;;;;;;;;;;;;;;-2.24;69.96;101162.94;4861101;29;19971;-68
2022/02/24 07:45:01;;;;;;;;;;;;;;;-2.16;70.86;101146.06;4861394;29;19924;-66
2022/02/24 07:47:26;;;;;;;;;;;;;;;-2.12;70.29;101139.78;4861176;29;19924;-69
2022/02/24 07:49:52;;;;;;;;;;;;;;;-2.11;70.72;101142.31;4861528;29;20077;-67
2022/02/24 07:52:17;;;;;;;;;;;;;;;-2.12;70.78;101135.41;4861121;29;19924;-68
2022/02/24 07:54:42;;;;;;;;;;;;;;;-1.99;70.83;101131.31;4860936;29;20012;-69
2022/02/24 07:57:08;;;;;;;;;;;;;;;-1.95;70.14;101121.56;4860827;29;19967;-69
2022/02/24 07:59:33;;;;;;;;;;;;;;;-1.92;70.04;101111.81;4860975;29;19924;-69
2022/02/24 08:01:59;;;;;;;;;;;;;;;-1.88;69.82;101112.50;4861017;29;19924;-71
2022/02/24 08:04:24;;;;;;;;;;;;;;;-1.92;70.07;101111.81;4860954;29;19931;-69
2022/02/24 08:06:49;;;;;;;;;;;;;;;-2.03;70.32;101092.34;4860936;29;19924;-69
2022/02/24 08:09:15;;;;;;;;;;;;;;;-2.14;70.60;101092.03;4844180;29;20280;-69
2022/02/24 08:11:40;;;;;;;;;;;;;;;-2.26;71.67;101078.66;4860721;29;19992;-72
2022/02/24 08:14:06;;;;;;;;;;;;;;;-2.31;71.84;101071.97;4860722;29;19924;-70
2022/02/24 08:16:31;;;;;;;;;;;;;;;-2.23;71.60;101086.34;4861501;29;20010;-71
2022/02/24 08:18:59;;;;;;;;;;;;;;;-2.20;71.63;101072.31;4860722;29;19924;-71
2022/02/24 08:21:25;;;;;;;;;;;;;;;-2.11;70.81;101074.47;4861024;29;20288;-70
2022/02/24 08:23:52;;;;;;;;;;;;;;;-2.06;70.95;101075.06;4860704;29;19932;-71
2022/02/24 08:26:20;;;;;;;;;;;;;;;-2.06;70.85;101072.47;4860447;29;19924;-68
2022/02/24 08:28:46;;;;;;;;;;;;;;;-1.98;70.59;101072.13;4860398;29;19924;-69
2022/02/24 08:31:11;;;;;;;;;;;;;;;-1.88;70.72;101082.03;4860523;29;19935;-69
2022/02/24 08:33:37;;;;;;;;;;;;;;;-1.79;70.69;101077.25;4860477;29;20308;-69
2022/02/24 08:36:02;;;;;;;;;;;;;;;-1.68;70.10;101069.75;4860764;29;19932;-70
2022/02/24 08:38:28;;;;;;;;;;;;;;;-1.56;69.81;101064.75;4860294;29;19930;-68
2022/02/24 08:40:53;;;;;;;;;;;;;;;-1.48;69.14;101071.34;4859965;29;19923;-68
2022/02/24 08:43:20;;;;;;;;;;;;;;;-1.41;68.52;101064.91;4843674;29;19988;-69
2022/02/24 08:45:48;;;;;;;;;;;;;;;-1.32;68.47;101065.25;4861346;29;19931;-70
2022/02/24 08:48:13;;;;;;;;;;;;;;;-1.23;68.06;101061.31;4864244;29;19924;-70
2022/02/24 08:50:44;;;;;;;;;;;;;;;-1.10;67.41;101049.31;4859527;29;20400;-66
2022/02/24 08:53:10;;;;;;;;;;;;;;;-0.84;67.08;101050.53;4843822;29;19925;-69
2022/02/24 08:55:38;;;;;;;;;;;;;;;-0.64;67.08;101050.25;4863050;29;20018;-68
2022/02/24 08:58:03;;;;;;;;;;;;;;;-0.67;66.10;101046.97;4860389;29;19924;-69
2022/02/24 09:00:29;;;;;;;;;;;;;;;-0.68;66.38;101024.38;4860057;29;19924;-71
2022/02/24 09:02:54;;;;;;;;;;;;;;;-0.62;66.25;101035.34;4861296;29;20036;-67
2022/02/24 09:05:19;;;;;;;;;;;;;;;-0.57;65.92;101032.50;4843977;29;19931;-70
2022/02/24 09:07:45;;;;;;;;;;;;;;;-0.52;66.37;101020.00;4860021;29;19935;-69
2022/02/24 09:10:10;;;;;;;;;;;;;;;-0.47;66.38;101011.88;4859847;29;19936;-68
2022/02/24 09:12:36;;;;;;;;;;;;;;;-0.48;65.65;101011.03;4860321;29;20023;-68
2022/02/24 09:15:01;;;;;;;;;;;;;;;-0.54;65.54;100995.69;4860139;29;19928;-68
2022/02/24 09:17:28;;;;;;;;;;;;;;;-0.56;65.65;100992.31;4859794;29;19952;-70
2022/02/24 09:19:56;;;;;;;;;;;;;;;-0.61;66.25;100989.09;4859687;29;19932;-70
2022/02/24 09:22:23;;;;;;;;;;;;;;;-0.57;66.03;100990.63;4859892;29;19971;-68
2022/02/24 09:24:48;;;;;;;;;;;;;;;-0.51;66.13;100979.81;4860859;29;20389;-70
2022/02/24 09:27:13;;;;;;;;;;;;;;;-0.43;65.95;100980.22;4859794;29;19967;-69
2022/02/24 09:29:39;;;;;;;;;;;;;;;-0.35;65.75;100966.69;4859924;29;20573;-70
2022/02/24 09:32:04;;;;;;;;;;;;;;;-0.27;65.86;100968.88;4859769;29;20379;-70
2022/02/24 09:34:30;;;;;;;;;;;;;;;-0.24;65.80;100960.84;4862311;29;19932;-70
2022/02/24 09:36:55;;;;;;;;;;;;;;;-0.15;66.04;100962.94;4859754;29;19956;-73
2022/02/24 09:39:20;;;;;;;;;;;;;;;0.02;65.68;100965.41;4843105;29;19935;-72
2022/02/24 09:41:46;;;;;;;;;;;;;;;0.18;65.30;100957.47;4860106;29;19923;-72
2022/02/24 09:44:11;;;;;;;;;;;;;;;0.43;65.08;100954.22;4859907;29;19928;-70
2022/02/24 09:46:39;;;;;;;;;;;;;;;0.66;64.54;100945.81;4862799;29;20405;-69
2022/02/24 09:49:05;;;;;;;;;;;;;;;0.72;64.09;100942.81;4859970;29;20018;-70
2022/02/24 09:51:31;;;;;;;;;;;;;;;0.78;64.45;100939.78;4859710;29;20030;-71
2022/02/24 09:53:56;;;;;;;;;;;;;;;0.79;64.04;100928.38;4859393;29;20015;-70
2022/02/24 09:56:29;;;;;;;;;;;;;;;0.85;64.22;100917.50;4859966;29;19928;-68
2022/02/24 09:58:55;;;;;;;;;;;;;;;0.99;64.00;100924.50;4859883;29;19924;-69
2022/02/24 10:01:21;;;;;;;;;;;;;;;1.10;64.14;100927.28;4859555;29;19924;-68
2022/02/24 10:03:48;;;;;;;;;;;;;;;1.04;64.25;100909.31;4862447;29;20293;-70
2022/02/24 10:06:15;;;;;;;;;;;;;;;0.95;64.46;100906.44;4863130;29;20414;-69
2022/02/24 10:08:42;;;;;;;;;;;;;;;0.81;64.92;100895.03;4862934;29;20396;-68
2022/02/24 10:11:19;;;;;;;;;;;;;;;0.78;65.35;100892.59;4846517;29;19930;-71
2022/02/24 10:14:03;;;;;;;;;;;;;;;0.65;66.60;100893.47;4862892;29;20411;-71
2022/02/24 10:16:29;;;;;;;;;;;;;;;0.64;66.59;100876.91;4862955;29;19932;-70
2022/02/24 10:18:55;;;;;;;;;;;;;;;0.60;67.04;100880.69;4862606;29;19924;-69
2022/02/24 10:21:21;;;;;;;;;;;;;;;0.56;66.69;100880.00;4862379;29;19935;-69
2022/02/24 10:23:48;;;;;;;;;;;;;;;0.57;67.18;100865.13;4862440;29;20067;-70
2022/02/24 10:26:15;;;;;;;;;;;;;;;0.58;67.28;100874.69;4845732;29;19975;-72
2022/02/24 10:28:40;;;;;;;;;;;;;;;0.63;67.32;100892.75;4862614;29;19924;-74
2022/02/24 10:31:15;;;;;;;;;;;;;;;0.57;67.94;100870.34;4862445;29;19946;-69
2022/02/24 10:33:42;;;;;;;;;;;;;;;0.64;67.36;100857.72;4862706;29;19924;-67
2022/02/24 10:36:09;;;;;;;;;;;;;;;0.72;67.37;100860.69;4846196;29;20003;-70
2022/02/24 10:38:34;;;;;;;;;;;;;;;0.79;67.30;100854.97;4845913;29;19953;-69
2022/02/24 10:41:00;;;;;;;;;;;;;;;0.82;67.46;100843.44;4846712;29;19924;-68
2022/02/24 10:43:26;;;;;;;;;;;;;;;0.87;66.98;100842.22;4862320;29;19928;-69
2022/02/24 10:45:54;;;;;;;;;;;;;;;0.84;67.02;100847.63;4845778;29;19951;-71
2022/02/24 10:48:20;;;;;;;;;;;;;;;0.84;67.39;100847.63;4862393;29;19924;-70
2022/02/24 10:50:50;;;;;;;;;;;;;;;0.90;67.19;100838.56;4862751;29;19924;-68
2022/02/24 10:53:19;;;;;;;;;;;;;;;0.91;66.86;100835.84;4862214;29;19978;-70
2022/02/24 10:55:53;;;;;;;;;;;;;;;0.89;67.19;100829.84;4862077;29;20396;-70
2022/02/24 10:58:18;;;;;;;;;;;;;;;0.92;67.42;100834.91;4861898;29;19925;-73
2022/02/24 11:00:43;;;;;;;;;;;;;;;0.97;67.38;100842.47;4862016;29;20341;-70
2022/02/24 11:03:09;;;;;;;;;;;;;;;1.01;67.51;100849.19;4861740;29;19928;-70
2022/02/24 11:05:36;;;;;;;;;;;;;;;1.09;67.39;100846.06;4862173;29;20388;-70
2022/02/24 11:08:01;;;;;;;;;;;;;;;0.89;67.57;100779.19;4861978;29;19928;-70
2022/02/24 11:10:27;;;;;;;;;;;;;;;1.34;67.58;100826.94;4845396;29;19931;-71
2022/02/24 11:12:52;;;;;;;;;;;;;;;1.47;66.43;100826.03;4865034;29;19931;-69
2022/02/24 11:15:18;;;;;;;;;;;;;;;1.52;66.77;100823.94;4860855;29;19940;-71
2022/02/24 11:17:44;;;;;;;;;;;;;;;1.52;66.90;100818.69;4861984;29;19928;-70
2022/02/24 11:20:10;;;;;;;;;;;;;;;1.46;67.23;100818.25;4861910;29;19992;-70
2022/02/24 11:22:36;;;;;;;;;;;;;;;1.45;66.73;100806.91;4861691;29;19972;-70
2022/02/24 11:25:02;;;;;;;;;;;;;;;1.54;67.31;100803.66;4863734;29;19935;-66
2022/02/24 11:27:28;;;;;;;;;;;;;;;1.53;67.52;100804.59;4861597;29;19972;-69
2022/02/24 11:29:54;;;;;;;;;;;;;;;1.58;67.99;100795.56;4844998;29;19928;-72
2022/02/24 11:32:23;;;;;;;;;;;;;;;1.58;67.86;100787.69;4845084;29;19930;-71
2022/02/24 11:35:06;;;;;;;;;;;;;;;1.66;67.96;100799.34;4861679;29;20544;-69
2022/02/24 11:37:36;;;;;;;;;;;;;;;1.76;67.66;100784.66;4862010;29;20430;-69
2022/02/24 11:40:06;;;;;;;;;;;;;;;1.81;67.90;100786.97;4861473;29;20060;-69
2022/02/24 11:42:33;;;;;;;;;;;;;;;1.86;67.74;100774.34;4864307;29;19928;-69
2022/02/24 11:44:59;;;;;;;;;;;;;;;1.90;67.74;100786.31;4861345;29;19928;-71
2022/02/24 11:47:24;;;;;;;;;;;;;;;1.97;67.56;100771.81;4861024;29;19924;-68
2022/02/24 11:49:53;;;;;;;;;;;;;;;1.96;67.75;100775.38;4861565;29;19957;-69
2022/02/24 11:52:22;;;;;;;;;;;;;;;1.98;67.67;100765.63;4844565;29;19924;-69
2022/02/24 11:55:32;;;;;;;;;;;;;;;1.97;67.41;100766.56;4861432;29;20372;-69
2022/02/24 11:58:18;;;;;;;;;;;;;;;1.98;67.47;100768.25;4861014;29;20364;-69
2022/02/24 12:01:03;;;;;;;;;;;;;;;2.07;67.61;100765.00;4861058;29;20291;-70
2022/02/24 12:03:44;;;;;;;;;;;;;;;2.13;67.09;100763.72;4844297;29;19924;-72
2022/02/24 12:06:10;;;;;;;;;;;;;;;2.09;66.95;100772.75;4860785;29;19928;-69
2022/02/24 12:08:54;;;;;;;;;;;;;;;2.10;67.34;100756.88;4844179;29;19924;-69
2022/02/24 12:11:34;;;;;;;;;;;;;;;2.13;67.24;100767.19;4863199;29;19947;-71
2022/02/24 12:14:01;;;;;;;;;;;;;;;2.09;67.04;100749.94;4843975;29;19924;-71
2022/02/24 12:16:27;;;;;;;;;;;;;;;2.08;66.85;100764.03;4860631;29;19924;-71
2022/02/24 12:18:54;;;;;;;;;;;;;;;2.12;66.88;100752.38;4860712;29;19924;-70
2022/02/24 12:21:32;;;;;;;;;;;;;;;2.14;66.92;100768.00;4860382;29;19944;-70
2022/02/24 12:23:58;;;;;;;;;;;;;;;2.10;67.27;100745.53;4860453;29;20432;-73
2022/02/24 12:26:37;;;;;;;;;;;;;;;2.15;67.01;100764.44;4859051;29;20305;-69
2022/02/24 12:29:28;;;;;;;;;;;;;;;2.18;67.15;100754.53;4861113;29;20430;-70
2022/02/24 12:31:57;;;;;;;;;;;;;;;2.16;66.86;100750.34;4860635;29;19924;-75
2022/02/24 12:34:23;;;;;;;;;;;;;;;2.16;67.25;100738.06;4844088;29;20318;-77